Time;durP1;ratioP1;P1;durP2;ratioP2;P2;SDS_P1;SDS_P2;PMS_P1;PMS_P2;Temp;Humidity;BMP_temperature;BMP_pressure;BME280_temperature;BME280_humidity;BME280_pressure;Samples;Min_cycle;Max_cycle;Signal;HPM_P1;HPM_P2
2021/03/29 00:00:27;;;;;;;1999.90;999.90;;;;;;;12.84;52.96;102218.31;15714672;28;20044;-57
2021/03/29 00:08:05;;;;;;;1999.90;999.90;;;;;;;12.86;53.04;102214.06;15732466;28;20045;-60
2021/03/29 00:15:40;;;;;;;1999.90;999.90;;;;;;;12.79;53.59;102204.41;15714169;28;20045;-60
2021/03/29 00:23:12;;;;;;;1999.90;999.90;;;;;;;12.74;53.54;102210.13;15714488;28;20390;-59
2021/03/29 00:30:46;;;;;;;1999.90;999.90;;;;;;;12.77;53.47;102206.69;15721007;28;20048;-59
2021/03/29 00:38:18;;;;;;;1999.90;999.90;;;;;;;12.82;53.77;102215.84;15743244;28;20106;-58
2021/03/29 00:45:53;;;;;;;1999.90;999.90;;;;;;;12.83;53.68;102219.47;15724324;28;20175;-59
2021/03/29 00:53:25;;;;;;;1999.90;999.90;;;;;;;12.73;53.74;102223.31;15724639;28;20404;-58
2021/03/29 01:00:59;;;;;;;1999.90;999.90;;;;;;;12.70;53.56;102221.09;15706839;28;20052;-58
2021/03/29 01:08:36;;;;;;;1999.90;999.90;;;;;;;12.70;53.39;102216.31;15723061;28;20573;-62
2021/03/29 01:16:08;;;;;;;;;;;;;;;12.82;53.42;102220.56;15740643;28;20377;-59
2021/03/29 01:23:41;;;;;;;1999.90;999.90;;;;;;;12.68;53.50;102215.81;15721616;28;19939;-60
2021/03/29 01:31:14;;;;;;;1999.90;999.90;;;;;;;12.70;53.95;102213.53;15739637;28;20109;-61
2021/03/29 01:38:47;;;;;;;1999.90;999.90;;;;;;;12.66;54.24;102206.91;15720709;28;20045;-58
2021/03/29 01:46:20;;;;;;;1999.90;999.90;;;;;;;12.71;53.80;102204.00;15720559;28;20064;-61
2021/03/29 01:53:52;;;;;;;1999.90;999.90;;;;;;;12.51;54.61;102204.41;15720106;28;20159;-58
2021/03/29 02:01:25;;;;;;;1999.90;999.90;;;;;;;12.66;54.36;102200.47;15737588;28;20440;-58
2021/03/29 02:08:58;;;;;;;1999.90;999.90;;;;;;;12.69;54.72;102197.88;15736714;28;20080;-60
2021/03/29 02:16:30;;;;;;;1999.90;999.90;;;;;;;12.62;54.64;102194.66;15719011;28;20044;-59
2021/03/29 02:24:04;;;;;;;1999.90;999.90;;;;;;;12.35;55.37;102181.47;15718031;28;20040;-59
2021/03/29 02:31:36;;;;;;;;;;;;;;;12.26;55.28;102179.69;15701931;28;20106;-60
2021/03/29 02:39:08;;;;;;;1999.90;999.90;;;;;;;12.27;55.68;102175.75;15736256;28;20368;-60
2021/03/29 02:46:41;;;;;;;1999.90;999.90;;;;;;;12.06;55.63;102180.91;15734616;28;20049;-59
2021/03/29 02:54:14;;;;;;;1999.90;999.90;;;;;;;12.12;55.48;102177.72;15733633;28;20056;-59
2021/03/29 03:01:48;;;;;;;1999.90;999.90;;;;;;;12.00;56.07;102180.19;15734029;28;20040;-58
2021/03/29 03:09:20;;;;;;;1999.90;999.90;;;;;;;12.09;55.83;102192.34;15733973;28;20048;-60
2021/03/29 03:16:52;;;;;;;1999.90;999.90;;;;;;;12.16;55.57;102193.88;15699245;28;20055;-62
2021/03/29 03:24:32;;;;;;;1999.90;999.90;;;;;;;12.14;55.78;102195.03;15735137;28;20480;-60
2021/03/29 03:32:05;;;;;;;1999.90;999.90;;;;;;;12.02;56.22;102186.31;15734857;28;20076;-62
2021/03/29 03:39:38;;;;;;;1999.90;999.90;;;;;;;12.06;56.45;102194.91;15755186;22;20442;-58
2021/03/29 03:47:11;;;;;;;1999.90;999.90;;;;;;;12.24;56.15;102193.19;15729894;28;20048;-60
2021/03/29 03:54:43;;;;;;;1999.90;999.90;;;;;;;12.30;55.81;102203.16;15732191;28;20060;-56
2021/03/29 04:02:16;;;;;;;1999.90;999.90;;;;;;;12.14;55.91;102192.22;15712773;28;20388;-59
2021/03/29 04:09:56;;;;;;;1999.90;999.90;;;;;;;12.08;56.21;102190.66;15741042;28;20431;-60
2021/03/29 04:17:28;;;;;;;1999.90;999.90;;;;;;;11.68;57.09;102191.34;15723355;28;20075;-58
2021/03/29 04:24:59;;;;;;;1999.90;999.90;;;;;;;11.88;56.96;102190.19;15723073;28;20083;-55
2021/03/29 04:32:32;;;;;;;1999.90;999.90;;;;;;;11.79;56.93;102182.50;15741077;28;20060;-59
2021/03/29 04:40:04;;;;;;;1999.90;999.90;;;;;;;11.88;56.90;102184.59;15729113;28;20033;-60
2021/03/29 04:47:37;;;;;;;1999.90;999.90;;;;;;;11.69;56.82;102185.44;15677904;28;20588;-59
2021/03/29 04:55:17;;;;;;;1999.90;999.90;;;;;;;11.75;56.53;102191.78;15659579;28;20133;-58
2021/03/29 05:02:50;;;;;;;1999.90;999.90;;;;;;;11.95;56.32;102204.59;15657880;28;20044;-57
2021/03/29 05:10:22;;;;;;;1999.90;999.90;;;;;;;11.93;56.48;102202.13;15674945;28;20063;-59
2021/03/29 05:17:54;;;;;;;1999.90;999.90;;;;;;;11.90;56.55;102210.31;15675128;28;20052;-59
2021/03/29 05:25:25;;;;;;;1999.90;999.90;;;;;;;11.97;56.61;102208.75;15674751;28;20140;-55
2021/03/29 05:32:58;;;;;;;1999.90;999.90;;;;;;;11.96;56.21;102212.69;15674671;28;20152;-57
2021/03/29 05:40:29;;;;;;;1999.90;999.90;;;;;;;12.16;55.82;102216.28;15670086;28;20152;-59
2021/03/29 05:48:02;;;;;;;1999.90;999.90;;;;;;;12.05;55.92;102227.66;15717871;28;20135;-60
2021/03/29 05:55:37;;;;;;;1999.90;999.90;;;;;;;12.20;55.73;102229.34;15734272;28;20155;-59
2021/03/29 06:03:24;;;;;;;1999.90;999.90;;;;;;;12.35;55.35;102233.84;15718050;28;20040;-57
2021/03/29 06:10:58;;;;;;;1999.90;999.90;;;;;;;12.30;55.61;102231.97;15716096;28;20056;-57
2021/03/29 06:18:30;;;;;;;1999.90;999.90;;;;;;;12.34;55.53;102238.59;15715892;28;20036;-57
2021/03/29 06:26:19;;;;;;;1999.90;999.90;;;;;;;12.68;54.91;102243.00;15732584;28;20357;-58
2021/03/29 06:33:53;;;;;;;1999.90;999.90;;;;;;;12.83;54.82;102245.50;15714254;28;20094;-56
2021/03/29 06:41:28;;;;;;;1999.90;999.90;;;;;;;12.79;54.73;102241.66;15732010;28;20059;-59
2021/03/29 06:49:01;;;;;;;1999.90;999.90;;;;;;;13.09;54.53;102247.75;15732304;28;20554;-57
2021/03/29 06:56:35;;;;;;;1999.90;999.90;;;;;;;13.20;54.33;102247.25;15731888;28;20044;-58
2021/03/29 07:04:07;;;;;;;1999.90;999.90;;;;;;;13.63;53.49;102246.81;15731203;28;20049;-56
2021/03/29 07:11:39;;;;;;;1999.90;999.90;;;;;;;13.88;52.25;102245.41;15713231;28;20132;-59
2021/03/29 07:19:12;;;;;;;1999.90;999.90;;;;;;;14.29;51.45;102242.38;15712974;28;20400;-60
2021/03/29 07:26:46;;;;;;;1999.90;999.90;;;;;;;14.63;49.85;102246.53;15730739;28;20511;-61
2021/03/29 07:34:42;;;;;;;1999.90;999.90;;;;;;;14.92;49.81;102260.88;15731094;28;20313;-60
2021/03/29 07:42:33;;;;;;;1999.90;999.90;;;;;;;15.21;48.46;102257.47;15722398;28;20048;-56
2021/03/29 07:50:08;;;;;;;1999.90;999.90;;;;;;;15.52;48.32;102260.16;15742821;28;20040;-57
2021/03/29 07:58:03;;;;;;;1999.90;999.90;;;;;;;15.54;48.57;102251.41;15743315;28;20052;-58
2021/03/29 08:05:39;;;;;;;1999.90;999.90;;;;;;;15.38;47.41;102273.56;15741485;28;20471;-58
2021/03/29 08:13:11;;;;;;;1999.90;999.90;;;;;;;15.90;48.11;102270.81;15724279;28;20037;-57
2021/03/29 08:20:46;;;;;;;1999.90;999.90;;;;;;;16.09;47.61;102267.66;15723214;28;20093;-60
2021/03/29 08:28:19;;;;;;;1999.90;999.90;;;;;;;16.13;47.62;102277.06;15722752;28;20045;-57
2021/03/29 08:35:52;;;;;;;1999.90;999.90;;;;;;;15.99;46.84;102274.44;15740259;28;20396;-60
2021/03/29 08:43:24;;;;;;;1999.90;999.90;;;;;;;16.24;47.38;102280.38;15722237;28;20097;-61
2021/03/29 08:50:57;;;;;;;1999.90;999.90;;;;;;;15.96;48.48;102294.00;15704006;28;20488;-56
2021/03/29 08:58:28;;;;;;;1999.90;999.90;;;;;;;16.19;46.49;102283.38;15720561;28;20405;-57
2021/03/29 09:06:14;;;;;;;1999.90;999.90;;;;;;;17.17;45.38;102288.03;15737830;28;20553;-58
2021/03/29 09:13:47;;;;;;;1999.90;999.90;;;;;;;17.31;44.35;102283.81;15720699;28;20187;-60
2021/03/29 09:21:25;;;;;;;1999.90;999.90;;;;;;;18.33;42.83;102279.66;15738056;28;20049;-59
2021/03/29 09:28:57;;;;;;;1999.90;999.90;;;;;;;17.89;43.23;102287.72;15736933;28;20316;-58
2021/03/29 09:36:32;;;;;;;1999.90;999.90;;;;;;;17.66;42.56;102286.41;15701842;28;20139;-59
2021/03/29 09:44:07;;;;;;;1999.90;999.90;;;;;;;19.92;39.63;102282.56;15701918;28;20044;-60
2021/03/29 09:51:42;;;;;;;1999.90;999.90;;;;;;;19.73;39.52;102276.72;15735938;28;20052;-59
2021/03/29 09:59:23;;;;;;;1999.90;999.90;;;;;;;19.55;40.09;102271.31;15717597;28;20504;-61
2021/03/29 10:06:58;;;;;;;1999.90;999.90;;;;;;;19.86;40.23;102266.97;15735709;28;20099;-60
2021/03/29 10:14:34;;;;;;;1999.90;999.90;;;;;;;20.06;38.67;102265.97;15716592;28;20082;-59
2021/03/29 10:22:10;;;;;;;1999.90;999.90;;;;;;;19.98;38.29;102254.78;15735147;28;20532;-59
2021/03/29 10:29:42;;;;;;;1999.90;999.90;;;;;;;19.56;39.04;102269.31;15716251;28;20044;-60
2021/03/29 10:37:21;;;;;;;1999.90;999.90;;;;;;;18.49;41.71;102270.53;15733991;28;20047;-59
2021/03/29 10:44:53;;;;;;;1999.90;999.90;;;;;;;17.56;45.33;102259.41;15714784;28;20084;-58
2021/03/29 10:52:26;;;;;;;1999.90;999.90;;;;;;;17.42;45.94;102258.84;15733272;28;20060;-58
2021/03/29 10:59:58;;;;;;;1999.90;999.90;;;;;;;18.15;45.11;102259.25;15732452;28;20519;-61
2021/03/29 11:07:30;;;;;;;1999.90;999.90;;;;;;;18.40;44.12;102246.00;15731199;28;20044;-59
2021/03/29 11:15:03;;;;;;;1999.90;999.90;;;;;;;18.43;41.55;102255.78;15712385;28;20037;-60
2021/03/29 11:22:35;;;;;;;1999.90;999.90;;;;;;;18.63;41.15;102259.72;15730891;28;20399;-60
2021/03/29 11:30:09;;;;;;;1999.90;999.90;;;;;;;19.32;39.52;102258.81;15732308;28;20063;-59
2021/03/29 11:37:42;;;;;;;1999.90;999.90;;;;;;;21.02;36.35;102267.75;15714716;28;20053;-61
2021/03/29 11:45:14;;;;;;;1999.90;999.90;;;;;;;20.23;35.90;102253.50;15713809;28;20044;-60
2021/03/29 11:52:47;;;;;;;1999.90;999.90;;;;;;;21.34;34.98;102257.19;15731876;28;20048;-60
2021/03/29 12:00:23;;;;;;;1999.90;999.90;;;;;;;21.15;35.32;102248.59;15731949;28;20097;-60
2021/03/29 12:15:54;;;;;;;1999.90;999.90;;;;;;;24.23;31.09;102242.34;15719422;28;20075;-60
2021/03/29 12:23:28;;;;;;;1999.90;999.90;;;;;;;24.75;30.59;102244.13;15713405;28;20058;-60
2021/03/29 12:31:00;;;;;;;1999.90;999.90;;;;;;;23.47;32.25;102234.88;15741808;28;20044;-59
2021/03/29 12:38:35;;;;;;;1999.90;999.90;;;;;;;25.15;29.79;102257.56;15707971;28;20056;-59
2021/03/29 12:46:07;;;;;;;1999.90;999.90;;;;;;;28.30;26.26;102234.56;15722410;28;20086;-59
2021/03/29 12:53:40;;;;;;;1999.90;999.90;;;;;;;28.01;26.68;102231.00;15705925;28;20048;-59
2021/03/29 13:01:13;;;;;;;1999.90;999.90;;;;;;;29.52;25.09;102217.13;15740815;28;20305;-59
2021/03/29 13:08:45;;;;;;;;;;;;;;;29.80;24.21;102222.50;15724265;28;20043;-59
2021/03/29 13:16:17;;;;;;;1999.90;999.90;;;;;;;29.84;23.85;102216.72;15722071;28;19957;-59
2021/03/29 13:23:50;;;;;;;1999.90;999.90;;;;;;;30.51;23.77;102217.81;15721634;28;20044;-59
2021/03/29 13:31:23;;;;;;;1999.90;999.90;;;;;;;31.26;22.56;102208.75;15722236;28;20049;-58
2021/03/29 13:38:55;;;;;;;1999.90;999.90;;;;;;;28.00;26.32;102211.34;15720005;28;20044;-59
2021/03/29 13:46:27;;;;;;;1999.90;999.90;;;;;;;24.32;31.43;102206.63;15737908;28;20060;-59
2021/03/29 13:54:07;;;;;;;1999.90;999.90;;;;;;;24.30;31.63;102197.63;15738074;28;20051;-59
2021/03/29 14:01:39;;;;;;;1999.90;999.90;;;;;;;23.28;33.18;102193.09;15737097;28;20037;-60
2021/03/29 14:09:13;;;;;;;1999.90;999.90;;;;;;;23.07;33.63;102189.94;15737278;28;20075;-59
2021/03/29 14:16:45;;;;;;;1999.90;999.90;;;;;;;23.11;34.10;102189.97;15736412;28;20244;-58
2021/03/29 14:24:17;;;;;;;1999.90;999.90;;;;;;;22.63;34.86;102176.19;15735089;28;20180;-60
2021/03/29 14:31:51;;;;;;;1999.90;999.90;;;;;;;23.10;34.16;102179.78;15734676;28;20115;-59
2021/03/29 14:39:30;;;;;;;1999.90;999.90;;;;;;;22.84;35.52;102172.09;15734908;28;20452;-60
2021/03/29 14:47:04;;;;;;;1999.90;999.90;;;;;;;22.98;34.29;102158.88;15715385;28;20055;-58
2021/03/29 14:54:39;;;;;;;1999.90;999.90;;;;;;;23.44;33.66;102157.88;15715792;28;20511;-57
2021/03/29 15:02:11;;;;;;;1999.90;999.90;;;;;;;22.64;34.72;102157.09;15734179;28;20503;-57
2021/03/29 15:09:47;;;;;;;1999.90;999.90;;;;;;;23.00;34.81;102147.94;15735042;28;20048;-60
2021/03/29 15:17:19;;;;;;;1999.90;999.90;;;;;;;22.79;35.00;102161.81;15718315;28;20068;-60
2021/03/29 15:24:51;;;;;;;1999.90;999.90;;;;;;;22.21;34.43;102159.22;15716067;28;20128;-59
2021/03/29 15:32:23;;;;;;;1999.90;999.90;;;;;;;22.17;35.44;102164.00;15732906;28;20111;-58
2021/03/29 15:39:56;;;;;;;1999.90;999.90;;;;;;;21.98;34.54;102159.13;15733161;28;20350;-59
2021/03/29 15:47:28;;;;;;;1999.90;999.90;;;;;;;21.95;35.47;102156.22;15715594;28;20052;-59
2021/03/29 15:55:01;;;;;;;1999.90;999.90;;;;;;;21.89;35.09;102159.41;15714172;28;20442;-58
2021/03/29 16:02:40;;;;;;;1999.90;999.90;;;;;;;21.75;35.18;102156.25;15723648;28;20049;-59
2021/03/29 16:10:13;;;;;;;1999.90;999.90;;;;;;;21.52;35.18;102155.38;15726335;28;20096;-58
2021/03/29 16:17:45;;;;;;;1999.90;999.90;;;;;;;21.33;35.38;102153.34;15725729;28;20102;-60
2021/03/29 16:25:20;;;;;;;1999.90;999.90;;;;;;;21.43;35.74;102151.94;15742865;28;20049;-60
2021/03/29 16:32:52;;;;;;;1999.90;999.90;;;;;;;21.41;35.35;102158.00;15744473;28;20110;-57
2021/03/29 16:40:24;;;;;;;1999.90;999.90;;;;;;;21.57;35.14;102158.75;15743406;28;20048;-59
2021/03/29 16:47:56;;;;;;;1999.90;999.90;;;;;;;21.32;35.87;102169.56;15723284;28;20056;-56
2021/03/29 16:55:32;;;;;;;1999.90;999.90;;;;;;;21.65;35.14;102175.91;15707084;28;20051;-56
2021/03/29 17:03:04;;;;;;;1999.90;999.90;;;;;;;21.30;35.65;102191.00;15723481;28;20066;-58
2021/03/29 17:10:36;;;;;;;1999.90;999.90;;;;;;;21.27;36.04;102189.72;15740258;28;20055;-59
2021/03/29 17:18:08;;;;;;;1999.90;999.90;;;;;;;20.89;36.71;102196.09;15740550;28;20076;-58
2021/03/29 17:25:41;;;;;;;1999.90;999.90;;;;;;;20.63;36.71;102207.19;15739133;28;20307;-60
2021/03/29 17:33:12;;;;;;;1999.90;999.90;;;;;;;20.52;36.84;102209.72;15721720;28;20044;-60
2021/03/29 17:40:44;;;;;;;1999.90;999.90;;;;;;;20.23;37.50;102210.97;15739579;28;20055;-58
2021/03/29 17:48:16;;;;;;;1999.90;999.90;;;;;;;20.11;37.86;102222.34;15720968;28;20551;-59
2021/03/29 17:55:49;;;;;;;1999.90;999.90;;;;;;;19.89;38.28;102223.75;15738318;28;20094;-60
2021/03/29 18:03:21;;;;;;;1999.90;999.90;;;;;;;19.70;38.87;102224.44;15704194;28;20552;-59
2021/03/29 18:10:53;;;;;;;1999.90;999.90;;;;;;;19.37;40.00;102233.09;15738273;28;20099;-59
2021/03/29 18:18:25;;;;;;;1999.90;999.90;;;;;;;19.02;41.61;102247.75;15703615;28;20117;-60
2021/03/29 18:25:58;;;;;;;1999.90;999.90;;;;;;;18.78;41.91;102253.41;15736677;28;20113;-59
2021/03/29 18:33:29;;;;;;;1999.90;999.90;;;;;;;18.38;43.14;102267.34;15736569;28;20044;-59
2021/03/29 18:41:07;;;;;;;1999.90;999.90;;;;;;;18.22;43.45;102280.44;15702414;28;20072;-59
2021/03/29 18:48:39;;;;;;;1999.90;999.90;;;;;;;18.02;43.19;102282.97;15718854;28;20047;-59
2021/03/29 18:56:24;;;;;;;1999.90;999.90;;;;;;;17.88;43.46;102291.72;15735258;28;20036;-60
2021/03/29 19:03:56;;;;;;;1999.90;999.90;;;;;;;17.85;42.52;102300.06;15733442;28;20036;-56
2021/03/29 19:11:28;;;;;;;1999.90;999.90;;;;;;;17.62;43.56;102307.19;15716295;28;20036;-58
2021/03/29 19:19:01;;;;;;;1999.90;999.90;;;;;;;17.39;45.01;102326.41;15714438;28;20114;-59
2021/03/29 19:26:37;;;;;;;1999.90;999.90;;;;;;;17.36;43.96;102321.47;15730369;28;20044;-57
2021/03/29 19:34:09;;;;;;;1999.90;999.90;;;;;;;17.23;44.79;102320.53;15708254;28;20077;-61
2021/03/29 19:41:41;;;;;;;1999.90;999.90;;;;;;;17.11;44.83;102320.44;15672551;28;20077;-62
2021/03/29 19:49:13;;;;;;;1999.90;999.90;;;;;;;16.91;44.55;102328.47;15650809;28;20056;-62
2021/03/29 19:56:46;;;;;;;1999.90;999.90;;;;;;;16.87;45.14;102327.47;15650346;28;20434;-61
2021/03/29 20:04:26;;;;;;;1999.90;999.90;;;;;;;16.82;44.69;102333.31;15649229;28;20492;-62
2021/03/29 20:12:00;;;;;;;1999.90;999.90;;;;;;;16.45;45.59;102337.69;15649310;28;20430;-58
2021/03/29 20:19:32;;;;;;;1999.90;999.90;;;;;;;16.31;46.19;102345.50;15645606;28;20505;-55
2021/03/29 20:27:05;;;;;;;1999.90;999.90;;;;;;;16.19;46.53;102350.97;15610898;28;20472;-58
2021/03/29 20:34:36;;;;;;;1999.90;999.90;;;;;;;16.07;46.44;102352.47;15608582;28;20469;-55
2021/03/29 20:42:09;;;;;;;1999.90;999.90;;;;;;;15.92;47.17;102358.56;15623910;28;20041;-57
2021/03/29 20:49:41;;;;;;;1999.90;999.90;;;;;;;15.55;48.18;102355.19;15648690;28;20477;-60
2021/03/29 20:57:15;;;;;;;1999.90;999.90;;;;;;;15.75;47.02;102362.22;15654885;28;20312;-60
2021/03/29 21:04:46;;;;;;;1999.90;999.90;;;;;;;15.77;47.56;102362.72;15658606;28;20359;-58
2021/03/29 21:12:18;;;;;;;1999.90;999.90;;;;;;;15.62;47.63;102368.78;15636062;28;20439;-59
2021/03/29 21:19:50;;;;;;;1999.90;999.90;;;;;;;15.51;47.87;102368.22;15672877;28;20496;-58
2021/03/29 21:27:22;;;;;;;1999.90;999.90;;;;;;;15.58;47.93;102376.19;15649970;28;20041;-59
2021/03/29 21:34:54;;;;;;;1999.90;999.90;;;;;;;15.40;48.99;102382.94;15676277;28;20129;-59
2021/03/29 21:42:27;;;;;;;1999.90;999.90;;;;;;;15.30;49.05;102384.88;15674339;22;20088;-63
2021/03/29 21:50:00;;;;;;;1999.90;999.90;;;;;;;15.13;49.07;102403.69;15641081;28;20077;-61
2021/03/29 21:57:33;;;;;;;1999.90;999.90;;;;;;;14.89;50.14;102392.78;15635433;28;20116;-64
2021/03/29 22:05:05;;;;;;;1999.90;999.90;;;;;;;14.59;51.09;102397.22;15655962;28;20507;-63
2021/03/29 22:12:38;;;;;;;1999.90;999.90;;;;;;;14.35;51.86;102400.31;15591729;28;20041;-65
2021/03/29 22:20:11;;;;;;;1999.90;999.90;;;;;;;14.18;52.13;102400.19;15656646;28;20041;-62
2021/03/29 22:27:50;;;;;;;1999.90;999.90;;;;;;;14.03;52.73;102402.19;15618887;28;20041;-64
2021/03/29 22:35:34;;;;;;;1999.90;999.90;;;;;;;13.91;52.51;102410.31;15663411;28;20453;-63
2021/03/29 22:43:06;;;;;;;1999.90;999.90;;;;;;;13.78;52.55;102406.41;15601233;28;20050;-62
2021/03/29 22:50:38;;;;;;;1999.90;999.90;;;;;;;13.60;53.09;102410.16;15600560;28;20513;-62
2021/03/29 22:58:10;;;;;;;1999.90;999.90;;;;;;;13.60;52.92;102404.53;15600072;28;20041;-63
2021/03/29 23:05:42;;;;;;;1999.90;999.90;;;;;;;13.66;52.19;102403.31;15616771;28;20045;-64
2021/03/29 23:13:14;;;;;;;1999.90;999.90;;;;;;;13.59;52.30;102414.09;15616965;28;20045;-63
2021/03/29 23:20:45;;;;;;;1999.90;999.90;;;;;;;13.48;53.02;102421.06;15581878;28;20123;-63
2021/03/29 23:28:18;;;;;;;1999.90;999.90;;;;;;;13.32;53.59;102431.75;15568297;28;20498;-65
2021/03/29 23:35:50;;;;;;;1999.90;999.90;;;;;;;13.04;54.08;102432.84;15612962;28;20044;-62
2021/03/29 23:43:22;;;;;;;1999.90;999.90;;;;;;;12.91;55.19;102431.66;15614900;28;20386;-63
2021/03/29 23:50:53;;;;;;;1999.90;999.90;;;;;;;12.70;55.09;102440.41;15614874;28;20053;-63
2021/03/29 23:58:26;;;;;;;1999.90;999.90;;;;;;;12.60;55.26;102448.13;15596906;28;20038;-62
